General Alvear, Argentina
Current Conditions -  °F | °C
As of 8:00 PM on Wednesday 22 Oct 2014 (Local Time) from SAME Reporting Station
Scattered Clouds Scattered Clouds  
Wind Chill: 86°   Ceiling: Unl
Heat Index: 86°   Visibility: 6mi
Dew Point: 55°   Wind: 2mph
Humidity: 35%   Direction: 180°S
Pressure: 29.88"   Gusts: NA
Location:  34.97°S, 67.7°W
Report Text: SAME 222300Z 18002KT 9999 FEW045TCU SCT050 30/13 Q1012
Loading
Personal Weather Stations






























Interactive Weather Map
Tropical Storm Tracking
New forecast layout! Learn more

10-Day Weather Forecast

Advertisements
Track Severe Weather on mobile